sensor_id;sensor_type;location;lat;lon;timestamp;pressure;altitude;pressure_sealevel;temperature;humidity
41800;BME280;27468;47.460;19.034;2023-08-20T00:00:10;100659.41;;;20.77;100.00
41800;BME280;27468;47.460;19.034;2023-08-20T00:02:37;100695.66;;;20.99;100.00
41800;BME280;27468;47.460;19.034;2023-08-20T00:05:03;100655.00;;;20.76;100.00
41800;BME280;27468;47.460;19.034;2023-08-20T00:07:30;100689.69;;;20.94;100.00
41800;BME280;27468;47.460;19.034;2023-08-20T00:09:56;100685.81;;;20.84;100.00
41800;BME280;27468;47.460;19.034;2023-08-20T00:12:21;100678.81;;;20.81;100.00
41800;BME280;27468;47.460;19.034;2023-08-20T00:17:20;100694.38;;;20.90;100.00
41800;BME280;27468;47.460;19.034;2023-08-20T00:19:46;100650.94;;;20.69;100.00
41800;BME280;27468;47.460;19.034;2023-08-20T00:22:12;100662.25;;;20.74;100.00
41800;BME280;27468;47.460;19.034;2023-08-20T00:24:37;100670.97;;;20.78;100.00
41800;BME280;27468;47.460;19.034;2023-08-20T00:27:03;100657.41;;;20.65;100.00
41800;BME280;27468;47.460;19.034;2023-08-20T00:29:28;100672.97;;;20.74;100.00
41800;BME280;27468;47.460;19.034;2023-08-20T00:31:54;100691.94;;;20.86;100.00
41800;BME280;27468;47.460;19.034;2023-08-20T00:34:19;100682.56;;;20.79;100.00
41800;BME280;27468;47.460;19.034;2023-08-20T00:36:44;100677.47;;;20.74;100.00
41800;BME280;27468;47.460;19.034;2023-08-20T00:39:11;100620.75;;;20.34;100.00
41800;BME280;27468;47.460;19.034;2023-08-20T00:41:36;100684.13;;;20.67;100.00
41800;BME280;27468;47.460;19.034;2023-08-20T00:44:02;100687.91;;;20.63;100.00
41800;BME280;27468;47.460;19.034;2023-08-20T00:46:29;100673.06;;;20.57;100.00
41800;BME280;27468;47.460;19.034;2023-08-20T00:48:54;100671.41;;;20.55;100.00
41800;BME280;27468;47.460;19.034;2023-08-20T00:51:20;100667.00;;;20.54;100.00
41800;BME280;27468;47.460;19.034;2023-08-20T00:53:46;100635.63;;;20.40;100.00
41800;BME280;27468;47.460;19.034;2023-08-20T00:56:12;100673.22;;;20.54;100.00
41800;BME280;27468;47.460;19.034;2023-08-20T00:58:37;100671.66;;;20.50;100.00
41800;BME280;27468;47.460;19.034;2023-08-20T01:01:03;100669.84;;;20.51;100.00
41800;BME280;27468;47.460;19.034;2023-08-20T01:03:28;100681.53;;;20.50;100.00
41800;BME280;27468;47.460;19.034;2023-08-20T01:06:06;100668.63;;;20.40;100.00
41800;BME280;27468;47.460;19.034;2023-08-20T01:08:40;100688.53;;;20.52;100.00
41800;BME280;27468;47.460;19.034;2023-08-20T01:11:26;100683.59;;;20.44;100.00
41800;BME280;27468;47.460;19.034;2023-08-20T01:13:55;100685.56;;;20.41;100.00
41800;BME280;27468;47.460;19.034;2023-08-20T01:16:20;100688.94;;;20.44;100.00
41800;BME280;27468;47.460;19.034;2023-08-20T01:18:47;100692.56;;;20.43;100.00
41800;BME280;27468;47.460;19.034;2023-08-20T01:21:30;100653.84;;;20.18;100.00
41800;BME280;27468;47.460;19.034;2023-08-20T01:24:10;100689.19;;;20.40;100.00
41800;BME280;27468;47.460;19.034;2023-08-20T01:27:26;100647.09;;;20.10;100.00
41800;BME280;27468;47.460;19.034;2023-08-20T01:29:54;100697.38;;;20.37;100.00
41800;BME280;27468;47.460;19.034;2023-08-20T01:32:22;100690.28;;;20.36;100.00
41800;BME280;27468;47.460;19.034;2023-08-20T01:34:49;100689.41;;;20.35;100.00
41800;BME280;27468;47.460;19.034;2023-08-20T01:37:14;100685.44;;;20.27;100.00
41800;BME280;27468;47.460;19.034;2023-08-20T01:39:39;100644.84;;;20.03;100.00
41800;BME280;27468;47.460;19.034;2023-08-20T01:42:05;100679.38;;;20.23;100.00
41800;BME280;27468;47.460;19.034;2023-08-20T01:44:31;100687.16;;;20.28;100.00
41800;BME280;27468;47.460;19.034;2023-08-20T01:46:56;100681.19;;;20.23;100.00
41800;BME280;27468;47.460;19.034;2023-08-20T01:49:23;100678.63;;;20.21;100.00
41800;BME280;27468;47.460;19.034;2023-08-20T01:51:48;100696.22;;;20.25;100.00
41800;BME280;27468;47.460;19.034;2023-08-20T01:54:13;100640.84;;;19.94;100.00
41800;BME280;27468;47.460;19.034;2023-08-20T01:56:39;100690.00;;;20.25;100.00
41800;BME280;27468;47.460;19.034;2023-08-20T01:59:05;100649.66;;;19.96;100.00
41800;BME280;27468;47.460;19.034;2023-08-20T02:01:30;100701.09;;;20.19;100.00
41800;BME280;27468;47.460;19.034;2023-08-20T02:03:56;100689.75;;;20.14;100.00
41800;BME280;27468;47.460;19.034;2023-08-20T02:06:21;100694.25;;;20.13;100.00
41800;BME280;27468;47.460;19.034;2023-08-20T02:08:46;100688.97;;;20.11;100.00
41800;BME280;27468;47.460;19.034;2023-08-20T02:11:12;100701.41;;;20.13;100.00
41800;BME280;27468;47.460;19.034;2023-08-20T02:13:38;100644.25;;;19.81;100.00
41800;BME280;27468;47.460;19.034;2023-08-20T02:16:04;100687.66;;;20.03;100.00
41800;BME280;27468;47.460;19.034;2023-08-20T02:18:30;100675.47;;;19.97;100.00
41800;BME280;27468;47.460;19.034;2023-08-20T02:20:56;100686.63;;;20.05;100.00
41800;BME280;27468;47.460;19.034;2023-08-20T02:23:22;100678.75;;;20.02;100.00
41800;BME280;27468;47.460;19.034;2023-08-20T02:25:48;100686.78;;;20.02;100.00
41800;BME280;27468;47.460;19.034;2023-08-20T02:28:14;100675.63;;;19.94;100.00
41800;BME280;27468;47.460;19.034;2023-08-20T02:30:43;100685.41;;;19.95;100.00
41800;BME280;27468;47.460;19.034;2023-08-20T02:33:09;100672.97;;;19.94;100.00
41800;BME280;27468;47.460;19.034;2023-08-20T02:35:38;100678.41;;;19.93;100.00
41800;BME280;27468;47.460;19.034;2023-08-20T02:38:05;100644.75;;;19.71;100.00
41800;BME280;27468;47.460;19.034;2023-08-20T02:40:30;100639.47;;;19.70;100.00
41800;BME280;27468;47.460;19.034;2023-08-20T02:42:56;100625.84;;;19.59;100.00
41800;BME280;27468;47.460;19.034;2023-08-20T02:45:21;100680.22;;;19.92;100.00
41800;BME280;27468;47.460;19.034;2023-08-20T02:47:48;100681.22;;;19.90;100.00
41800;BME280;27468;47.460;19.034;2023-08-20T02:50:14;100693.50;;;19.94;100.00
41800;BME280;27468;47.460;19.034;2023-08-20T02:52:41;100683.19;;;19.86;100.00
41800;BME280;27468;47.460;19.034;2023-08-20T02:55:07;100675.81;;;19.91;100.00
41800;BME280;27468;47.460;19.034;2023-08-20T02:57:32;100669.13;;;19.83;100.00
41800;BME280;27468;47.460;19.034;2023-08-20T02:59:58;100650.88;;;19.73;100.00
41800;BME280;27468;47.460;19.034;2023-08-20T03:02:23;100676.75;;;19.90;100.00
41800;BME280;27468;47.460;19.034;2023-08-20T03:04:48;100644.22;;;19.65;100.00
41800;BME280;27468;47.460;19.034;2023-08-20T03:07:14;100688.81;;;19.82;100.00
41800;BME280;27468;47.460;19.034;2023-08-20T03:09:39;100687.00;;;19.82;100.00
41800;BME280;27468;47.460;19.034;2023-08-20T03:12:05;100652.50;;;19.60;100.00
41800;BME280;27468;47.460;19.034;2023-08-20T03:14:30;100678.09;;;19.82;100.00
41800;BME280;27468;47.460;19.034;2023-08-20T03:16:56;100684.63;;;19.76;100.00
41800;BME280;27468;47.460;19.034;2023-08-20T03:19:21;100674.81;;;19.76;100.00
41800;BME280;27468;47.460;19.034;2023-08-20T03:21:47;100683.00;;;19.73;100.00
41800;BME280;27468;47.460;19.034;2023-08-20T03:24:12;100692.59;;;19.77;100.00
41800;BME280;27468;47.460;19.034;2023-08-20T03:26:37;100645.41;;;19.42;100.00
41800;BME280;27468;47.460;19.034;2023-08-20T03:29:03;100681.66;;;19.65;100.00
41800;BME280;27468;47.460;19.034;2023-08-20T03:31:29;100699.44;;;19.66;100.00
41800;BME280;27468;47.460;19.034;2023-08-20T03:33:54;100655.72;;;19.50;100.00
41800;BME280;27468;47.460;19.034;2023-08-20T03:36:19;100674.16;;;19.56;100.00
41800;BME280;27468;47.460;19.034;2023-08-20T03:38:45;100700.06;;;19.71;100.00
41800;BME280;27468;47.460;19.034;2023-08-20T03:41:10;100701.97;;;19.69;100.00
41800;BME280;27468;47.460;19.034;2023-08-20T03:43:36;100696.00;;;19.64;100.00
41800;BME280;27468;47.460;19.034;2023-08-20T03:46:01;100675.25;;;19.52;100.00
41800;BME280;27468;47.460;19.034;2023-08-20T03:48:27;100699.94;;;19.57;100.00
41800;BME280;27468;47.460;19.034;2023-08-20T03:50:53;100697.13;;;19.60;100.00
41800;BME280;27468;47.460;19.034;2023-08-20T03:53:18;100697.97;;;19.60;100.00
41800;BME280;27468;47.460;19.034;2023-08-20T03:55:50;100704.34;;;19.58;100.00
41800;BME280;27468;47.460;19.034;2023-08-20T03:58:15;100712.06;;;19.64;100.00
41800;BME280;27468;47.460;19.034;2023-08-20T04:00:41;100696.75;;;19.49;100.00
41800;BME280;27468;47.460;19.034;2023-08-20T04:03:06;100695.13;;;19.46;100.00
41800;BME280;27468;47.460;19.034;2023-08-20T04:05:39;100670.56;;;19.38;100.00
41800;BME280;27468;47.460;19.034;2023-08-20T04:08:05;100711.94;;;19.65;100.00
41800;BME280;27468;47.460;19.034;2023-08-20T04:10:31;100669.25;;;19.46;100.00
41800;BME280;27468;47.460;19.034;2023-08-20T04:12:57;100720.53;;;19.72;100.00
41800;BME280;27468;47.460;19.034;2023-08-20T04:15:22;100692.88;;;19.56;100.00
41800;BME280;27468;47.460;19.034;2023-08-20T04:17:47;100733.41;;;19.81;100.00
41800;BME280;27468;47.460;19.034;2023-08-20T04:20:14;100693.56;;;19.59;100.00
41800;BME280;27468;47.460;19.034;2023-08-20T04:22:40;100735.84;;;19.86;100.00
41800;BME280;27468;47.460;19.034;2023-08-20T04:25:06;100741.13;;;19.87;100.00
41800;BME280;27468;47.460;19.034;2023-08-20T04:27:32;100731.22;;;19.89;100.00
41800;BME280;27468;47.460;19.034;2023-08-20T04:29:57;100733.56;;;19.95;100.00
41800;BME280;27468;47.460;19.034;2023-08-20T04:32:23;100725.69;;;19.92;100.00
41800;BME280;27468;47.460;19.034;2023-08-20T04:34:48;100734.47;;;20.11;100.00
41800;BME280;27468;47.460;19.034;2023-08-20T04:37:15;100733.78;;;20.41;100.00
41800;BME280;27468;47.460;19.034;2023-08-20T04:39:40;100731.53;;;20.49;100.00
41800;BME280;27468;47.460;19.034;2023-08-20T04:42:06;100731.03;;;20.58;100.00
41800;BME280;27468;47.460;19.034;2023-08-20T04:44:31;100728.13;;;20.79;100.00
41800;BME280;27468;47.460;19.034;2023-08-20T04:46:56;100738.53;;;20.99;100.00
41800;BME280;27468;47.460;19.034;2023-08-20T04:49:22;100738.19;;;21.05;100.00
41800;BME280;27468;47.460;19.034;2023-08-20T04:51:47;100747.78;;;21.09;100.00
41800;BME280;27468;47.460;19.034;2023-08-20T04:54:13;100737.41;;;21.03;100.00
41800;BME280;27468;47.460;19.034;2023-08-20T04:56:38;100739.84;;;21.07;100.00
41800;BME280;27468;47.460;19.034;2023-08-20T04:59:04;100729.28;;;21.04;100.00
41800;BME280;27468;47.460;19.034;2023-08-20T05:01:29;100739.75;;;21.09;100.00
41800;BME280;27468;47.460;19.034;2023-08-20T05:03:54;100745.97;;;21.09;100.00
41800;BME280;27468;47.460;19.034;2023-08-20T05:06:20;100729.78;;;21.11;100.00
41800;BME280;27468;47.460;19.034;2023-08-20T05:08:45;100731.53;;;21.12;100.00
41800;BME280;27468;47.460;19.034;2023-08-20T05:11:11;100734.97;;;21.14;100.00
41800;BME280;27468;47.460;19.034;2023-08-20T05:13:36;100733.16;;;21.15;100.00
41800;BME280;27468;47.460;19.034;2023-08-20T05:16:02;100744.16;;;21.26;100.00
41800;BME280;27468;47.460;19.034;2023-08-20T05:18:27;100697.03;;;21.06;100.00
41800;BME280;27468;47.460;19.034;2023-08-20T05:20:52;100733.19;;;21.30;100.00
41800;BME280;27468;47.460;19.034;2023-08-20T05:23:18;100744.19;;;21.40;100.00
41800;BME280;27468;47.460;19.034;2023-08-20T05:25:43;100743.53;;;21.36;100.00
41800;BME280;27468;47.460;19.034;2023-08-20T05:28:09;100741.59;;;21.38;100.00
41800;BME280;27468;47.460;19.034;2023-08-20T05:30:34;100747.47;;;21.45;100.00
41800;BME280;27468;47.460;19.034;2023-08-20T05:33:00;100753.53;;;21.49;100.00
41800;BME280;27468;47.460;19.034;2023-08-20T05:35:25;100703.25;;;21.22;100.00
41800;BME280;27468;47.460;19.034;2023-08-20T05:37:50;100731.78;;;21.53;100.00
41800;BME280;27468;47.460;19.034;2023-08-20T05:40:16;100734.56;;;21.52;100.00
41800;BME280;27468;47.460;19.034;2023-08-20T05:42:41;100756.06;;;21.66;100.00
41800;BME280;27468;47.460;19.034;2023-08-20T05:45:07;100758.75;;;21.66;100.00
41800;BME280;27468;47.460;19.034;2023-08-20T05:47:32;100759.34;;;21.71;100.00
41800;BME280;27468;47.460;19.034;2023-08-20T05:49:58;100749.47;;;21.71;100.00
41800;BME280;27468;47.460;19.034;2023-08-20T05:52:23;100753.44;;;21.80;100.00
41800;BME280;27468;47.460;19.034;2023-08-20T05:54:49;100763.72;;;21.88;100.00
41800;BME280;27468;47.460;19.034;2023-08-20T05:57:14;100723.22;;;21.77;100.00
41800;BME280;27468;47.460;19.034;2023-08-20T05:59:40;100724.69;;;21.82;100.00
41800;BME280;27468;47.460;19.034;2023-08-20T06:02:05;100748.03;;;22.10;100.00
41800;BME280;27468;47.460;19.034;2023-08-20T06:04:31;100721.69;;;22.01;100.00
41800;BME280;27468;47.460;19.034;2023-08-20T06:06:56;100735.09;;;22.17;100.00
41800;BME280;27468;47.460;19.034;2023-08-20T06:09:22;100734.31;;;22.15;100.00
41800;BME280;27468;47.460;19.034;2023-08-20T06:11:47;100766.94;;;22.37;100.00
41800;BME280;27468;47.460;19.034;2023-08-20T06:14:14;100752.84;;;22.48;100.00
41800;BME280;27468;47.460;19.034;2023-08-20T06:16:39;100769.72;;;22.50;100.00
41800;BME280;27468;47.460;19.034;2023-08-20T06:19:04;100766.28;;;22.48;100.00
41800;BME280;27468;47.460;19.034;2023-08-20T06:21:30;100769.31;;;22.56;100.00
41800;BME280;27468;47.460;19.034;2023-08-20T06:23:55;100765.75;;;22.69;100.00
41800;BME280;27468;47.460;19.034;2023-08-20T06:26:21;100780.63;;;22.75;100.00
41800;BME280;27468;47.460;19.034;2023-08-20T06:28:46;100776.88;;;22.78;100.00
41800;BME280;27468;47.460;19.034;2023-08-20T06:31:11;100766.72;;;22.83;100.00
41800;BME280;27468;47.460;19.034;2023-08-20T06:33:37;100766.53;;;22.86;100.00
41800;BME280;27468;47.460;19.034;2023-08-20T06:36:03;100742.88;;;22.77;100.00
41800;BME280;27468;47.460;19.034;2023-08-20T06:38:29;100773.50;;;23.02;100.00
41800;BME280;27468;47.460;19.034;2023-08-20T06:40:55;100774.94;;;23.21;100.00
41800;BME280;27468;47.460;19.034;2023-08-20T06:43:20;100751.91;;;23.17;100.00
41800;BME280;27468;47.460;19.034;2023-08-20T06:45:46;100733.28;;;23.14;100.00
41800;BME280;27468;47.460;19.034;2023-08-20T06:48:11;100768.72;;;23.47;100.00
41800;BME280;27468;47.460;19.034;2023-08-20T06:50:37;100770.44;;;23.48;100.00
41800;BME280;27468;47.460;19.034;2023-08-20T06:53:02;100767.75;;;23.48;100.00
41800;BME280;27468;47.460;19.034;2023-08-20T06:55:27;100765.72;;;23.52;100.00
41800;BME280;27468;47.460;19.034;2023-08-20T06:57:53;100736.06;;;23.39;100.00
41800;BME280;27468;47.460;19.034;2023-08-20T07:00:18;100736.53;;;23.46;100.00
41800;BME280;27468;47.460;19.034;2023-08-20T07:02:44;100726.31;;;23.51;100.00
41800;BME280;27468;47.460;19.034;2023-08-20T07:05:10;100770.75;;;23.83;99.24
41800;BME280;27468;47.460;19.034;2023-08-20T07:07:35;100767.63;;;23.89;99.09
41800;BME280;27468;47.460;19.034;2023-08-20T07:10:01;100774.53;;;23.93;98.08
41800;BME280;27468;47.460;19.034;2023-08-20T07:12:28;100725.94;;;23.82;99.61
41800;BME280;27468;47.460;19.034;2023-08-20T07:14:54;100743.50;;;24.00;98.77
41800;BME280;27468;47.460;19.034;2023-08-20T07:17:19;100767.66;;;24.15;98.81
41800;BME280;27468;47.460;19.034;2023-08-20T07:19:45;100768.75;;;24.25;98.53
41800;BME280;27468;47.460;19.034;2023-08-20T07:22:10;100738.03;;;24.15;97.04
41800;BME280;27468;47.460;19.034;2023-08-20T07:24:35;100764.09;;;24.40;97.38
41800;BME280;27468;47.460;19.034;2023-08-20T07:27:01;100733.81;;;24.23;97.34
41800;BME280;27468;47.460;19.034;2023-08-20T07:29:29;100776.59;;;24.53;97.54
41800;BME280;27468;47.460;19.034;2023-08-20T07:31:56;100751.06;;;24.46;94.68
41800;BME280;27468;47.460;19.034;2023-08-20T07:34:21;100782.94;;;24.65;94.58
41800;BME280;27468;47.460;19.034;2023-08-20T07:36:47;100769.44;;;24.78;94.30
41800;BME280;27468;47.460;19.034;2023-08-20T07:39:12;100780.41;;;24.87;94.30
41800;BME280;27468;47.460;19.034;2023-08-20T07:41:38;100769.91;;;24.95;93.07
41800;BME280;27468;47.460;19.034;2023-08-20T07:44:03;100765.59;;;24.93;91.71
41800;BME280;27468;47.460;19.034;2023-08-20T07:46:29;100771.75;;;25.08;92.20
41800;BME280;27468;47.460;19.034;2023-08-20T07:48:54;100777.09;;;25.20;93.22
41800;BME280;27468;47.460;19.034;2023-08-20T07:51:20;100777.38;;;25.28;91.60
41800;BME280;27468;47.460;19.034;2023-08-20T07:53:45;100756.25;;;25.22;88.42
41800;BME280;27468;47.460;19.034;2023-08-20T07:56:10;100741.25;;;25.18;87.57
41800;BME280;27468;47.460;19.034;2023-08-20T07:58:36;100768.84;;;25.46;85.50
41800;BME280;27468;47.460;19.034;2023-08-20T08:01:01;100733.00;;;25.44;87.12
41800;BME280;27468;47.460;19.034;2023-08-20T08:03:27;100758.81;;;25.72;84.48
41800;BME280;27468;47.460;19.034;2023-08-20T08:05:53;100769.66;;;25.83;82.55
41800;BME280;27468;47.460;19.034;2023-08-20T08:08:19;100766.72;;;25.86;81.09
41800;BME280;27468;47.460;19.034;2023-08-20T08:10:45;100733.63;;;25.71;82.19
41800;BME280;27468;47.460;19.034;2023-08-20T08:13:12;100745.72;;;25.89;83.07
41800;BME280;27468;47.460;19.034;2023-08-20T08:15:38;100771.41;;;26.06;82.50
41800;BME280;27468;47.460;19.034;2023-08-20T08:18:03;100738.34;;;26.03;84.21
41800;BME280;27468;47.460;19.034;2023-08-20T08:20:29;100756.06;;;26.18;82.54
41800;BME280;27468;47.460;19.034;2023-08-20T08:22:54;100730.97;;;26.05;79.34
41800;BME280;27468;47.460;19.034;2023-08-20T08:25:20;100760.13;;;26.23;79.54
41800;BME280;27468;47.460;19.034;2023-08-20T08:27:45;100766.06;;;26.40;80.63
41800;BME280;27468;47.460;19.034;2023-08-20T08:30:11;100738.13;;;26.28;79.86
41800;BME280;27468;47.460;19.034;2023-08-20T08:32:37;100766.41;;;26.57;80.76
41800;BME280;27468;47.460;19.034;2023-08-20T08:35:02;100776.41;;;26.57;78.00
41800;BME280;27468;47.460;19.034;2023-08-20T08:37:27;100762.03;;;26.56;77.63
41800;BME280;27468;47.460;19.034;2023-08-20T08:39:53;100775.00;;;26.74;78.38
41800;BME280;27468;47.460;19.034;2023-08-20T08:42:22;100773.16;;;26.74;77.30
41800;BME280;27468;47.460;19.034;2023-08-20T08:44:48;100758.16;;;26.81;77.91
41800;BME280;27468;47.460;19.034;2023-08-20T08:47:14;100763.56;;;26.92;79.55
41800;BME280;27468;47.460;19.034;2023-08-20T08:49:40;100764.81;;;27.00;80.32
41800;BME280;27468;47.460;19.034;2023-08-20T08:52:06;100734.78;;;26.91;79.47
41800;BME280;27468;47.460;19.034;2023-08-20T08:54:33;100774.81;;;27.20;78.83
41800;BME280;27468;47.460;19.034;2023-08-20T08:56:59;100759.44;;;27.20;76.99
41800;BME280;27468;47.460;19.034;2023-08-20T08:59:24;100765.56;;;27.34;75.95
41800;BME280;27468;47.460;19.034;2023-08-20T09:01:50;100772.31;;;27.39;76.39
41800;BME280;27468;47.460;19.034;2023-08-20T09:04:15;100740.06;;;27.36;76.98
41800;BME280;27468;47.460;19.034;2023-08-20T09:06:45;100773.38;;;27.48;75.46
41800;BME280;27468;47.460;19.034;2023-08-20T09:09:11;100754.56;;;27.46;74.20
41800;BME280;27468;47.460;19.034;2023-08-20T09:11:36;100770.75;;;27.69;70.29
41800;BME280;27468;47.460;19.034;2023-08-20T09:14:02;100767.91;;;27.70;70.38
41800;BME280;27468;47.460;19.034;2023-08-20T09:16:30;100767.63;;;27.73;69.35
41800;BME280;27468;47.460;19.034;2023-08-20T09:18:59;100755.66;;;27.76;69.83
41800;BME280;27468;47.460;19.034;2023-08-20T09:21:27;100775.44;;;27.87;69.71
41800;BME280;27468;47.460;19.034;2023-08-20T09:23:58;100779.41;;;28.04;69.95
41800;BME280;27468;47.460;19.034;2023-08-20T09:26:26;100740.19;;;27.87;68.95
41800;BME280;27468;47.460;19.034;2023-08-20T09:28:54;100733.06;;;27.86;68.43
41800;BME280;27468;47.460;19.034;2023-08-20T09:31:20;100767.56;;;28.05;69.42
41800;BME280;27468;47.460;19.034;2023-08-20T09:33:53;100741.38;;;27.94;68.81
41800;BME280;27468;47.460;19.034;2023-08-20T09:36:19;100760.44;;;28.04;68.39
41800;BME280;27468;47.460;19.034;2023-08-20T09:38:44;100736.16;;;28.03;68.89
41800;BME280;27468;47.460;19.034;2023-08-20T09:41:12;100751.81;;;28.20;66.30
41800;BME280;27468;47.460;19.034;2023-08-20T09:43:38;100750.06;;;28.30;65.63
41800;BME280;27468;47.460;19.034;2023-08-20T09:46:05;100760.66;;;28.43;63.24
41800;BME280;27468;47.460;19.034;2023-08-20T09:48:34;100778.09;;;28.50;65.67
41800;BME280;27468;47.460;19.034;2023-08-20T09:51:10;100757.97;;;28.52;60.70
41800;BME280;27468;47.460;19.034;2023-08-20T09:53:45;100765.63;;;28.68;60.00
41800;BME280;27468;47.460;19.034;2023-08-20T09:56:29;100766.19;;;28.72;59.67
41800;BME280;27468;47.460;19.034;2023-08-20T09:58:57;100754.34;;;28.73;59.29
41800;BME280;27468;47.460;19.034;2023-08-20T10:01:23;100755.94;;;28.75;58.99
41800;BME280;27468;47.460;19.034;2023-08-20T10:03:49;100754.28;;;28.84;56.06
41800;BME280;27468;47.460;19.034;2023-08-20T10:06:14;100748.41;;;28.88;57.01
41800;BME280;27468;47.460;19.034;2023-08-20T10:08:40;100758.44;;;29.07;55.87
41800;BME280;27468;47.460;19.034;2023-08-20T10:11:05;100716.13;;;28.95;55.93
41800;BME280;27468;47.460;19.034;2023-08-20T10:13:31;100725.84;;;28.98;57.23
41800;BME280;27468;47.460;19.034;2023-08-20T10:15:57;100715.72;;;29.00;57.15
41800;BME280;27468;47.460;19.034;2023-08-20T10:18:23;100758.19;;;29.20;56.54
41800;BME280;27468;47.460;19.034;2023-08-20T10:20:51;100717.16;;;29.04;55.42
41800;BME280;27468;47.460;19.034;2023-08-20T10:23:21;100741.19;;;29.28;53.42
41800;BME280;27468;47.460;19.034;2023-08-20T10:25:51;100749.78;;;29.33;52.42
41800;BME280;27468;47.460;19.034;2023-08-20T10:28:26;100741.06;;;29.29;53.14
41800;BME280;27468;47.460;19.034;2023-08-20T10:31:07;100747.94;;;29.52;52.89
41800;BME280;27468;47.460;19.034;2023-08-20T10:33:55;100732.06;;;29.38;52.98
41800;BME280;27468;47.460;19.034;2023-08-20T10:36:22;100741.91;;;29.39;52.29
41800;BME280;27468;47.460;19.034;2023-08-20T10:38:51;100737.22;;;29.41;51.76
41800;BME280;27468;47.460;19.034;2023-08-20T10:41:25;100716.47;;;29.31;52.07
41800;BME280;27468;47.460;19.034;2023-08-20T10:43:50;100741.91;;;29.49;53.38
41800;BME280;27468;47.460;19.034;2023-08-20T10:46:21;100736.19;;;29.52;53.21
41800;BME280;27468;47.460;19.034;2023-08-20T10:48:50;100700.31;;;29.39;52.14
41800;BME280;27468;47.460;19.034;2023-08-20T10:51:25;100693.72;;;29.51;51.00
41800;BME280;27468;47.460;19.034;2023-08-20T10:56:54;100738.34;;;29.77;51.66
41800;BME280;27468;47.460;19.034;2023-08-20T11:01:50;100695.00;;;29.66;50.05
41800;BME280;27468;47.460;19.034;2023-08-20T11:04:18;100734.75;;;29.86;49.81
41800;BME280;27468;47.460;19.034;2023-08-20T11:06:45;100729.59;;;29.93;50.31
41800;BME280;27468;47.460;19.034;2023-08-20T11:09:10;100734.31;;;30.01;50.25
41800;BME280;27468;47.460;19.034;2023-08-20T11:11:39;100712.84;;;29.98;49.94
41800;BME280;27468;47.460;19.034;2023-08-20T11:14:12;100717.88;;;30.02;50.46
41800;BME280;27468;47.460;19.034;2023-08-20T11:16:42;100719.09;;;30.08;48.54
41800;BME280;27468;47.460;19.034;2023-08-20T11:19:09;100682.66;;;29.91;49.07
41800;BME280;27468;47.460;19.034;2023-08-20T11:21:35;100716.22;;;30.19;49.05
41800;BME280;27468;47.460;19.034;2023-08-20T11:24:01;100678.34;;;29.98;49.59
41800;BME280;27468;47.460;19.034;2023-08-20T11:26:27;100679.16;;;30.08;48.07
41800;BME280;27468;47.460;19.034;2023-08-20T11:28:52;100709.47;;;30.23;47.60
41800;BME280;27468;47.460;19.034;2023-08-20T11:31:18;100705.03;;;30.22;48.46
41800;BME280;27468;47.460;19.034;2023-08-20T11:33:44;100715.88;;;30.32;47.69
41800;BME280;27468;47.460;19.034;2023-08-20T11:36:09;100708.16;;;30.27;46.81
41800;BME280;27468;47.460;19.034;2023-08-20T11:38:35;100699.72;;;30.30;47.88
41800;BME280;27468;47.460;19.034;2023-08-20T11:41:00;100702.25;;;30.41;47.71
41800;BME280;27468;47.460;19.034;2023-08-20T11:43:29;100708.38;;;30.43;48.12
41800;BME280;27468;47.460;19.034;2023-08-20T11:45:56;100700.63;;;30.58;48.52
41800;BME280;27468;47.460;19.034;2023-08-20T11:48:22;100635.19;;;30.22;49.29
41800;BME280;27468;47.460;19.034;2023-08-20T11:50:47;100694.16;;;30.59;49.14
41800;BME280;27468;47.460;19.034;2023-08-20T11:53:13;100664.69;;;30.45;49.52
41800;BME280;27468;47.460;19.034;2023-08-20T11:55:42;100699.13;;;30.64;49.09
41800;BME280;27468;47.460;19.034;2023-08-20T11:58:13;100661.06;;;30.54;49.42
41800;BME280;27468;47.460;19.034;2023-08-20T12:00:39;100681.47;;;30.68;49.63
41800;BME280;27468;47.460;19.034;2023-08-20T12:03:05;100692.63;;;30.74;49.57
41800;BME280;27468;47.460;19.034;2023-08-20T12:05:31;100694.97;;;30.87;47.66
41800;BME280;27468;47.460;19.034;2023-08-20T12:08:03;100691.34;;;30.96;47.36
41800;BME280;27468;47.460;19.034;2023-08-20T12:10:30;100691.56;;;30.85;49.16
41800;BME280;27468;47.460;19.034;2023-08-20T12:12:57;100690.94;;;30.91;49.06
41800;BME280;27468;47.460;19.034;2023-08-20T12:15:24;100683.69;;;30.82;51.32
41800;BME280;27468;47.460;19.034;2023-08-20T12:17:59;100685.50;;;30.91;49.14
41800;BME280;27468;47.460;19.034;2023-08-20T12:20:29;100687.19;;;30.92;49.75
41800;BME280;27468;47.460;19.034;2023-08-20T12:22:58;100699.66;;;30.95;49.61
41800;BME280;27468;47.460;19.034;2023-08-20T12:25:24;100649.53;;;30.70;48.75
41800;BME280;27468;47.460;19.034;2023-08-20T12:27:49;100682.38;;;30.86;49.41
41800;BME280;27468;47.460;19.034;2023-08-20T12:30:15;100675.75;;;30.88;49.44
41800;BME280;27468;47.460;19.034;2023-08-20T12:32:40;100688.22;;;30.91;49.07
41800;BME280;27468;47.460;19.034;2023-08-20T12:35:06;100630.22;;;30.63;48.85
41800;BME280;27468;47.460;19.034;2023-08-20T12:37:31;100689.72;;;31.03;49.69
41800;BME280;27468;47.460;19.034;2023-08-20T12:39:57;100667.38;;;31.00;48.52